Terminal Aerodrome Forecast
Issued by NWS

Home | Current Version | Previous Version | Text Only | Print | Product List | Glossary On
Versions: 1 2 3 4 5 6 7 8 9 10 11 12 13
000
FTUS45 KABQ 291400 AAA
TAFTCC
TAF AMD
KTCC 291419Z 2914/3012 03010KT P6SM SKC
     FM291600 04015G25KT P6SM SKC
     FM291800 07013G23KT P6SM SKC
     FM292100 08011KT P6SM SCT250
     FM300200 VRB05KT P6SM SCT250=

USA.gov is the U.S. government's official web portal to all federal, state and local government web resources and services.